WetterOnline ( https://www.wetteronline.de )

Wetter aktuell Ostalb (in 700m)

Aktuelles Wetter: Geislingen/Stötten (737m)

6-stündlich | Neueste Meldungen
Ortszeit Temperatur Wetter
Di, 22.10. 14:00 12.2° C fast wolkenlos
Di, 22.10. 8:00 8.8° C wolkenlos
Di, 22.10. 2:00 9.3° C wolkig
Mo, 21.10. 20:00 12.3° C Regen
Mo, 21.10. 14:00 15.4° C bewölkt
Mo, 21.10. 8:00 11.2° C Nebel
Mo, 21.10. 2:00 10.1° C Nebel
So, 20.10. 20:00 11.6° C wolkig
Ortszeit Temperatur Wetter
Di, 22.10. 16:30 14.8° C wolkenlos
Di, 22.10. 16:20 14.8° C wolkenlos
Di, 22.10. 16:10 14.7° C fast wolkenlos
Di, 22.10. 16:00 14.7° C leicht bewölkt
Di, 22.10. 15:50 14.7° C leicht bewölkt
Di, 22.10. 15:40 14.8° C leicht bewölkt
Di, 22.10. 15:30 14.0° C fast wolkenlos
Di, 22.10. 15:00 13.2° C fast wolkenlos
Di, 22.10. 14:30 12.2° C wolkenlos
Di, 22.10. 14:00 12.2° C fast wolkenlos
Di, 22.10. 13:30 12.4° C fast wolkenlos
Ortszeit Relative Feuchte Sichtweite
Di, 22.10. 14:00 93% 9 km
Di, 22.10. 8:00 100% 4.6 km
Di, 22.10. 2:00 99% 4.4 km
Mo, 21.10. 20:00 92% 30 km
Mo, 21.10. 14:00 79% 40 km
Mo, 21.10. 8:00 100% 100 m
Mo, 21.10. 2:00 100% 100 m
So, 20.10. 20:00 95% 8 km
Ortszeit Relative Feuchte Sichtweite
Di, 22.10. 16:30 75% 70 km
Di, 22.10. 16:20 75% -
Di, 22.10. 16:10 74% -
Di, 22.10. 16:00 74% 40 km
Di, 22.10. 15:50 74% -
Di, 22.10. 15:40 74% -
Di, 22.10. 15:30 79% 40 km
Di, 22.10. 15:00 88% 28 km
Di, 22.10. 14:30 94% 7 km
Di, 22.10. 14:00 93% 9 km
Di, 22.10. 13:30 92% 9 km
Ortszeit Niederschlagsmenge Niederschlagsart
Di, 22.10. 14:00 0.0 l/m2 in 6 Std. -
Di, 22.10. 8:00 0.1 l/m2 in 12 Std. -
Di, 22.10. 2:00 0.1 l/m2 in 6 Std. -
Mo, 21.10. 20:00 0.1 l/m2 in 12 Std. Regen
Mo, 21.10. 14:00 0.1 l/m2 in 6 Std. Regen
Mo, 21.10. 8:00 0.0 l/m2 in 12 Std. -
Mo, 21.10. 2:00 0.0 l/m2 in 6 Std. -
So, 20.10. 20:00 0.0 l/m2 in 12 Std. -
Ortszeit Niederschlagsmenge Niederschlagsart
Di, 22.10. 16:30 0.0 l/m2 in 1 Std. -
Di, 22.10. 16:20 keine Meldung -
Di, 22.10. 16:10 keine Meldung -
Di, 22.10. 16:00 0.0 l/m2 in 1 Std. -
Di, 22.10. 15:50 keine Meldung -
Di, 22.10. 15:40 keine Meldung -
Di, 22.10. 15:30 0.0 l/m2 in 1 Std. -
Di, 22.10. 15:00 0.0 l/m2 in 1 Std. -
Di, 22.10. 14:30 0.0 l/m2 in 1 Std. -
Di, 22.10. 14:00 0.0 l/m2 in 1 Std. -
Di, 22.10. 13:30 0.0 l/m2 in 1 Std. -
Ortszeit Stärke Spitze Richtung
km/h Bft. km/h Grad Sektor
Di, 22.10. 14:00 9 2 17 300° NW
Di, 22.10. 8:00 7 2 11 80° O
Di, 22.10. 2:00 7 2 14 320° NW
Mo, 21.10. 20:00 7 2 18 10° N
Mo, 21.10. 14:00 9 2 22 300° NW
Mo, 21.10. 8:00 15 3 26 280° W
Mo, 21.10. 2:00 14 3 40 280° W
So, 20.10. 20:00 13 3 28 110° O
Ortszeit Stärke Spitze Richtung
km/h Bft. km/h Grad Sektor
Di, 22.10. 16:30 9 2 19 50° NO
Di, 22.10. 16:20 9 2 - 50° NO
Di, 22.10. 16:10 11 2 - 60° NO
Di, 22.10. 16:00 11 2 22 60° NO
Di, 22.10. 15:50 11 2 - 60° NO
Di, 22.10. 15:40 13 3 - 60° NO
Di, 22.10. 15:30 11 2 18 60° NO
Di, 22.10. 15:00 11 2 17 20° N
Di, 22.10. 14:30 9 2 17 310° NW
Di, 22.10. 14:00 9 2 15 300° NW
Di, 22.10. 13:30 7 2 11 290° W
Ortszeit Untergrenze Bedeckung Gattung
total tief tief mittel hoch
Di, 22.10. 14:00 8400 m 2/8 0/8 - - -
Di, 22.10. 8:00 - 0/8 0/8 - - -
Di, 22.10. 2:00 2700 m 6/8 5/8 - - -
Mo, 21.10. 20:00 480 m 8/8 8/8 - - -
Mo, 21.10. 14:00 4500 m 7/8 7/8 - - -
Mo, 21.10. 8:00 <30 m 8/8 0/8 - - -
Mo, 21.10. 2:00 <30 m 7/8 0/8 - - -
So, 20.10. 20:00 7200 m 7/8 0/8 - - -
Ortszeit Bedeckungsgrad in Achtel und Wolkenuntergrenze
Di, 22.10. 16:30 keine Wolken
Di, 22.10. 16:20 keine Wolken
Di, 22.10. 16:10 1(10500m)
Di, 22.10. 16:00 1(9000m) 3(10500m)
Di, 22.10. 15:50 1(9000m) 3(10500m)
Di, 22.10. 15:40 2(9000m) 3(10500m)
Di, 22.10. 15:30 2(9000m)
Di, 22.10. 15:00 1(8400m)
Di, 22.10. 14:30 keine Wolken
Di, 22.10. 14:00 2(8400m)
Di, 22.10. 13:30 1(8400m)
Ortszeit Luftdruck NN (hPa) Tendenz (hPa in 3 Std.)
Di, 22.10. 14:00 1024 + 0,1
Di, 22.10. 8:00 1023 - 1,0
Di, 22.10. 2:00 1024 + 0,4
Mo, 21.10. 20:00 1022 + 1,3
Mo, 21.10. 14:00 1019 + 1,2
Mo, 21.10. 8:00 1017 + 2,3
Mo, 21.10. 2:00 1013 + 1,7
So, 20.10. 20:00 1009 + 0,7
Ortszeit Luftdruck NN (hPa) Tendenz (hPa in 3 Std.)
Di, 22.10. 16:30 1022 - 1,1
Di, 22.10. 16:20 1022 keine Meldung
Di, 22.10. 16:10 1022 keine Meldung
Di, 22.10. 16:00 1022 - 1,1
Di, 22.10. 15:50 1022 keine Meldung
Di, 22.10. 15:40 1022 keine Meldung
Di, 22.10. 15:30 1023 - 0,8
Di, 22.10. 15:00 1023 - 0,9
Di, 22.10. 14:30 1024 - 0,3
Di, 22.10. 14:00 1024 + 0,1
Di, 22.10. 13:30 1024 + 0,3
Ortszeit Schneehöhe (cm)
Di, 22.10. 14:00 0
Di, 22.10. 8:00 0
Di, 22.10. 2:00 0
Mo, 21.10. 20:00 0
Mo, 21.10. 14:00 0
Mo, 21.10. 8:00 0
Mo, 21.10. 2:00 0
So, 20.10. 20:00 0
Ortszeit Schneehöhe (cm)
Di, 22.10. 16:30 0
Di, 22.10. 16:20 0
Di, 22.10. 16:10 0
Di, 22.10. 16:00 0
Di, 22.10. 15:50 0
Di, 22.10. 15:40 0
Di, 22.10. 15:30 0
Di, 22.10. 15:00 0
Di, 22.10. 14:30 0
Di, 22.10. 14:00 0
Di, 22.10. 13:30 0
Link zu dieser Seite / Seite empfehlen

Das Wetter in ...